Time;durP1;ratioP1;P1;durP2;ratioP2;P2;SDS_P1;SDS_P2;PMS_P1;PMS_P2;Temp;Humidity;BMP_temperature;BMP_pressure;BME280_temperature;BME280_humidity;BME280_pressure;Samples;Min_cycle;Max_cycle;Signal;HPM_P1;HPM_P2
2022/04/22 00:01:14;;;;;;;10.00;6.97;;;;;;;9.18;100.00;62942.28;5127493;28;20495;-80
2022/04/22 00:03:41;;;;;;;8.98;6.40;;;;;;;9.11;100.00;62932.50;5129540;28;20286;-79
2022/04/22 00:06:09;;;;;;;9.65;7.05;;;;;;;9.04;100.00;62927.81;5121677;28;20259;-79
2022/04/22 00:08:36;;;;;;;7.68;6.75;;;;;;;9.05;100.00;62926.28;5131887;28;20238;-78
2022/04/22 00:13:48;;;;;;;8.75;6.72;;;;;;;9.06;100.00;62932.41;5124477;28;20211;-79
2022/04/22 00:16:17;;;;;;;10.35;6.32;;;;;;;9.04;100.00;62930.84;5133043;28;20195;-77
2022/04/22 00:18:44;;;;;;;7.95;6.63;;;;;;;8.78;100.00;62901.47;5132049;28;20237;-79
2022/04/22 00:21:12;;;;;;;12.50;7.35;;;;;;;8.71;100.00;62896.75;5135152;28;20199;-78
2022/04/22 00:23:40;;;;;;;14.50;7.57;;;;;;;8.73;100.00;62893.22;5136268;28;20227;-78
2022/04/22 00:26:07;;;;;;;10.70;7.28;;;;;;;8.82;100.00;62910.66;5135853;28;20191;-77
2022/04/22 00:28:34;;;;;;;8.05;7.20;;;;;;;8.84;100.00;62907.66;5133053;28;20233;-78
2022/04/22 00:31:02;;;;;;;8.57;7.57;;;;;;;8.86;100.00;62909.19;5125299;28;20187;-79
2022/04/22 00:33:29;;;;;;;11.10;7.97;;;;;;;8.90;100.00;62916.41;5131668;27;20399;-78
2022/04/22 00:35:56;;;;;;;9.43;7.40;;;;;;;8.96;100.00;62917.50;5142652;27;20194;-78
2022/04/22 00:38:23;;;;;;;7.55;6.65;;;;;;;8.98;100.00;62924.13;5130160;28;20215;-78
2022/04/22 00:40:50;;;;;;;8.77;7.47;;;;;;;8.93;100.00;62916.44;5119215;28;20203;-78
2022/04/22 00:43:18;;;;;;;8.85;7.40;;;;;;;8.89;100.00;62912.81;5131104;28;20345;-78
2022/04/22 00:45:46;;;;;;;8.18;6.78;;;;;;;8.95;100.00;62919.03;5132461;27;20195;-78
2022/04/22 00:48:15;;;;;;;11.70;6.80;;;;;;;8.82;100.00;62902.53;5130625;28;20243;-78
2022/04/22 00:50:42;;;;;;;10.60;7.25;;;;;;;8.75;100.00;62897.84;5130325;28;20207;-78
2022/04/22 00:53:10;;;;;;;9.35;7.20;;;;;;;8.79;100.00;62902.47;5132174;28;20250;-80
2022/04/22 00:55:38;;;;;;;10.15;7.38;;;;;;;8.68;100.00;62893.16;5121591;28;20523;-79
2022/04/22 00:58:05;;;;;;;10.98;7.20;;;;;;;8.58;100.00;62880.78;5129862;28;20234;-79
2022/04/22 01:00:33;;;;;;;11.80;7.53;;;;;;;8.61;100.00;62881.34;5124189;28;20206;-78
2022/04/22 01:03:00;;;;;;;12.77;7.60;;;;;;;8.61;100.00;62885.91;5141154;27;20222;-78
2022/04/22 01:10:58;;;;;;;7.38;6.57;;;;;;;8.63;100.00;62887.97;5121024;28;20194;-78
2022/04/22 01:13:25;;;;;;;7.70;6.90;;;;;;;8.63;100.00;62880.38;5130708;28;20215;-78
2022/04/22 01:15:52;;;;;;;12.85;6.93;;;;;;;8.48;100.00;62872.47;5131387;28;20270;-79
2022/04/22 01:18:19;;;;;;;8.15;7.30;;;;;;;8.53;100.00;62875.09;5127675;28;20246;-79
2022/04/22 01:20:48;;;;;;;9.70;6.75;;;;;;;8.56;100.00;62880.75;5132279;28;20220;-78
2022/04/22 01:23:16;;;;;;;9.10;7.18;;;;;;;8.56;100.00;62878.72;5130853;28;20224;-78
2022/04/22 01:25:43;;;;;;;7.78;6.93;;;;;;;8.60;100.00;62879.78;5115873;28;20393;-77
2022/04/22 01:28:10;;;;;;;8.05;5.78;;;;;;;8.53;100.00;62878.16;5122332;28;20239;-78
2022/04/22 01:30:38;;;;;;;6.88;6.25;;;;;;;8.60;100.00;62884.88;5128046;28;20233;-78
2022/04/22 01:33:05;;;;;;;6.80;6.10;;;;;;;8.63;100.00;62882.91;5125098;27;20215;-78
2022/04/22 01:35:32;;;;;;;6.28;5.60;;;;;;;8.66;100.00;62889.03;5128718;28;20200;-77
2022/04/22 01:37:59;;;;;;;8.68;5.95;;;;;;;8.60;100.00;62882.31;5125369;28;20231;-79
2022/04/22 01:40:27;;;;;;;7.15;5.82;;;;;;;8.59;100.00;62878.75;5127694;27;20434;-77
2022/04/22 01:42:55;;;;;;;7.97;5.93;;;;;;;8.63;100.00;62880.88;5126143;28;20230;-78
2022/04/22 01:45:23;;;;;;;12.10;6.32;;;;;;;8.73;100.00;62893.72;5127630;28;20203;-78
2022/04/22 01:47:50;;;;;;;6.43;5.50;;;;;;;8.69;100.00;62892.16;5124854;28;20548;-78
2022/04/22 01:50:17;;;;;;;12.75;5.65;;;;;;;8.70;100.00;62895.72;5126237;28;20233;-77
2022/04/22 01:52:44;;;;;;;6.53;5.13;;;;;;;8.71;100.00;62893.69;5127210;28;20239;-79
2022/04/22 01:55:11;;;;;;;6.50;4.30;;;;;;;8.52;100.00;62876.59;5123397;28;20206;-78
2022/04/22 01:57:39;;;;;;;5.65;3.58;;;;;;;8.49;100.00;62876.06;5125865;28;20219;-78
2022/04/22 02:00:08;;;;;;;6.25;4.15;;;;;;;8.34;100.00;62856.00;5126823;28;20211;-78
2022/04/22 02:02:35;;;;;;;7.72;4.47;;;;;;;8.36;100.00;62855.53;5128093;28;20219;-77
2022/04/22 02:05:02;;;;;;;12.05;4.55;;;;;;;8.42;100.00;62864.25;5124530;28;20453;-78
2022/04/22 02:07:29;;;;;;;5.82;4.45;;;;;;;8.51;100.00;62878.63;5128598;28;20207;-77
2022/04/22 02:09:56;;;;;;;6.47;5.00;;;;;;;8.42;100.00;62868.81;5123666;28;20462;-78
2022/04/22 02:12:24;;;;;;;8.75;4.97;;;;;;;8.41;100.00;62862.69;5129325;28;20225;-78
2022/04/22 02:14:52;;;;;;;4.47;3.92;;;;;;;8.44;100.00;62865.81;5126123;28;20207;-78
2022/04/22 02:17:19;;;;;;;6.20;4.35;;;;;;;8.42;100.00;62863.75;5124348;28;20220;-78
2022/04/22 02:19:46;;;;;;;5.15;4.65;;;;;;;8.38;100.00;62864.69;5126494;28;20236;-78
2022/04/22 02:22:14;;;;;;;9.90;6.65;;;;;;;8.33;100.00;62854.44;5127720;28;20229;-78
2022/04/22 02:24:41;;;;;;;9.93;7.88;;;;;;;8.33;100.00;62852.44;5128958;28;20246;-78
2022/04/22 02:29:54;;;;;;;11.90;8.75;;;;;;;8.25;100.00;62849.22;5128971;28;20221;-78
2022/04/22 02:32:21;;;;;;;12.82;8.60;;;;;;;8.27;100.00;62853.84;5127509;28;20231;-79
2022/04/22 02:34:48;;;;;;;22.10;9.15;;;;;;;8.24;100.00;62843.13;5132726;28;20429;-78
2022/04/22 02:37:15;;;;;;;12.70;8.25;;;;;;;8.27;100.00;62850.78;5132735;28;20284;-79
2022/04/22 02:39:42;;;;;;;10.20;8.35;;;;;;;8.29;100.00;62847.78;5129024;28;20231;-78
2022/04/22 02:47:54;;;;;;;12.20;8.90;;;;;;;8.49;100.00;62873.50;5133300;28;20226;-78
2022/04/22 02:50:21;;;;;;;13.77;8.18;;;;;;;8.51;100.00;62878.13;5124747;28;20246;-79
2022/04/22 02:52:48;;;;;;;13.23;8.13;;;;;;;8.45;100.00;62872.44;5130599;28;20222;-79
2022/04/22 02:55:15;;;;;;;9.75;8.15;;;;;;;8.45;100.00;62869.38;5129198;28;20191;-78
2022/04/22 02:57:44;;;;;;;14.68;8.02;;;;;;;8.42;100.00;62859.16;5130926;28;20218;-80
2022/04/22 03:00:14;;;;;;;11.00;6.82;;;;;;;8.42;100.00;62863.75;5111058;28;20508;-80
2022/04/22 03:02:42;;;;;;;5.65;5.03;;;;;;;8.37;100.00;62861.13;5125015;28;20527;-79
2022/04/22 03:05:10;;;;;;;5.63;5.00;;;;;;;8.40;100.00;62859.66;5131380;28;20436;-79
2022/04/22 03:07:37;;;;;;;7.53;5.22;;;;;;;8.43;100.00;62867.81;5126927;28;20218;-79
2022/04/22 03:10:04;;;;;;;4.50;4.10;;;;;;;8.47;100.00;62866.91;5131441;28;20351;-78
2022/04/22 03:12:32;;;;;;;6.00;5.13;;;;;;;8.49;100.00;62876.06;5119467;28;20242;-78
2022/04/22 03:14:59;;;;;;;8.13;4.80;;;;;;;8.47;100.00;62866.91;5116450;28;20209;-79
2022/04/22 03:17:27;;;;;;;8.85;4.97;;;;;;;8.47;100.00;62869.44;5122517;28;20260;-77
2022/04/22 03:19:54;;;;;;;10.57;4.47;;;;;;;8.44;100.00;62863.78;5127555;28;20203;-78
2022/04/22 03:22:21;;;;;;;11.35;4.32;;;;;;;8.48;100.00;62867.91;5118743;28;20277;-79
2022/04/22 03:24:48;;;;;;;8.52;3.95;;;;;;;8.48;100.00;62867.41;5111542;28;20214;-78
2022/04/22 03:27:15;;;;;;;4.38;3.65;;;;;;;8.43;100.00;62867.81;5126322;28;20223;-78
2022/04/22 03:29:42;;;;;;;6.68;3.67;;;;;;;8.53;100.00;62872.56;5128180;28;20231;-79
2022/04/22 03:32:10;;;;;;;5.60;4.15;;;;;;;8.44;100.00;62868.34;5118451;28;20223;-78
2022/04/22 03:34:38;;;;;;;9.30;6.28;;;;;;;8.41;100.00;62865.75;5130133;28;20207;-79
2022/04/22 03:37:07;;;;;;;5.15;4.65;;;;;;;8.42;100.00;62861.72;5127095;28;20227;-78
2022/04/22 03:39:33;;;;;;;4.25;3.95;;;;;;;8.45;100.00;62864.31;5127011;28;20230;-78
2022/04/22 03:42:01;;;;;;;5.15;4.05;;;;;;;8.48;100.00;62875.53;5124141;28;20214;-78
2022/04/22 03:44:27;;;;;;;5.55;4.97;;;;;;;8.52;100.00;62872.06;5114784;28;20195;-78
2022/04/22 03:46:54;;;;;;;6.38;5.18;;;;;;;8.50;100.00;62872.00;5127217;28;20195;-78
2022/04/22 03:49:21;;;;;;;5.75;5.25;;;;;;;8.47;100.00;62871.44;5124465;28;20226;-78
2022/04/22 03:51:49;;;;;;;6.78;5.72;;;;;;;8.56;100.00;62878.22;5126123;28;20207;-79
2022/04/22 03:54:18;;;;;;;5.80;5.15;;;;;;;8.59;100.00;62881.31;5123294;28;20203;-78
2022/04/22 03:59:29;;;;;;;8.38;6.38;;;;;;;8.46;100.00;62865.31;5128433;28;20252;-79
2022/04/22 04:01:57;;;;;;;9.43;7.38;;;;;;;8.34;100.00;62858.00;5127822;28;20311;-79
2022/04/22 04:04:24;;;;;;;10.60;7.50;;;;;;;8.26;100.00;62845.19;5126095;28;20225;-79
2022/04/22 04:06:52;;;;;;;8.30;7.07;;;;;;;8.34;100.00;62853.44;5115597;28;20210;-79
2022/04/22 04:17:36;;;;;;;11.55;7.35;;;;;;;8.17;100.00;62840.94;5114462;28;20285;-80
2022/04/22 04:25:33;;;;;;;8.85;6.88;;;;;;;8.22;100.00;62846.13;5127259;28;20205;-80
2022/04/22 04:28:00;;;;;;;10.85;7.68;;;;;;;8.25;100.00;62846.19;5130360;28;20283;-80
2022/04/22 04:30:27;;;;;;;9.82;6.82;;;;;;;8.30;100.00;62851.84;5124645;28;20290;-80
2022/04/22 04:32:54;;;;;;;10.07;7.50;;;;;;;8.31;100.00;62852.38;5128525;28;20528;-79
2022/04/22 04:35:21;;;;;;;12.13;8.18;;;;;;;8.42;100.00;62864.25;5132550;28;20203;-78
2022/04/22 04:37:49;;;;;;;11.38;8.25;;;;;;;8.49;100.00;62868.94;5124033;28;20260;-78
2022/04/22 04:40:16;;;;;;;11.57;9.20;;;;;;;8.56;100.00;62878.72;5128637;28;20199;-79
2022/04/22 04:42:43;;;;;;;10.25;9.00;;;;;;;8.33;100.00;62852.44;5116108;28;20220;-79
2022/04/22 04:45:10;;;;;;;12.05;7.45;;;;;;;8.39;100.00;62858.63;5110902;28;20242;-79
2022/04/22 04:47:41;;;;;;;10.15;7.80;;;;;;;8.42;100.00;62861.22;5113903;28;20224;-80
2022/04/22 04:50:10;;;;;;;9.82;8.38;;;;;;;8.52;100.00;62874.06;5132295;28;20287;-81
2022/04/22 04:52:38;;;;;;;13.73;9.18;;;;;;;8.47;100.00;62871.97;5134938;28;20219;-80
2022/04/22 04:55:08;;;;;;;14.57;9.10;;;;;;;8.41;100.00;62865.75;5138667;28;20275;-81
2022/04/22 04:57:35;;;;;;;15.50;9.55;;;;;;;8.46;100.00;62865.84;5125000;28;20223;-81
2022/04/22 05:00:05;;;;;;;12.38;8.95;;;;;;;8.62;100.00;62886.94;5117995;28;20199;-81
2022/04/22 05:02:32;;;;;;;11.32;8.40;;;;;;;8.63;100.00;62885.44;5117932;28;20212;-81
2022/04/22 05:04:59;;;;;;;9.65;8.60;;;;;;;8.76;100.00;62898.88;5118497;28;20192;-81
2022/04/22 05:07:26;;;;;;;13.88;8.57;;;;;;;8.87;100.00;62913.28;5128683;28;20216;-81
2022/04/22 05:09:53;;;;;;;14.45;10.23;;;;;;;8.92;100.00;62915.91;5129538;28;20258;-81
2022/04/22 05:12:21;;;;;;;14.43;10.48;;;;;;;8.89;100.00;62912.28;5118184;28;20233;-81
2022/04/22 05:14:48;;;;;;;12.85;10.40;;;;;;;8.90;100.00;62910.78;5118781;28;20235;-81
2022/04/22 05:17:15;;;;;;;13.90;9.50;;;;;;;8.97;100.00;62923.63;5137283;28;20215;-82
2022/04/22 05:19:42;;;;;;;9.10;8.20;;;;;;;8.99;100.00;62925.19;5139339;28;20279;-82
2022/04/22 05:22:09;;;;;;;12.05;9.38;;;;;;;8.93;100.00;62916.44;5139136;28;20220;-82
2022/04/22 05:24:37;;;;;;;13.32;9.43;;;;;;;8.89;100.00;62917.38;5137339;28;20229;-82
2022/04/22 05:27:04;;;;;;;12.80;8.68;;;;;;;8.84;100.00;62907.66;5135825;28;20220;-81
2022/04/22 05:35:01;;;;;;;8.90;8.02;;;;;;;8.55;100.00;62880.22;5119782;28;20197;-82
2022/04/22 05:37:28;;;;;;;8.95;8.05;;;;;;;8.57;100.00;62876.69;5115928;28;20238;-82
2022/04/22 05:39:55;;;;;;;10.80;8.75;;;;;;;8.53;100.00;62875.63;5123265;28;20188;-81
2022/04/22 05:42:23;;;;;;;10.60;8.32;;;;;;;8.54;100.00;62879.19;5134163;28;20230;-80
2022/04/22 05:44:51;;;;;;;11.05;9.05;;;;;;;8.55;100.00;62884.78;5133281;28;20270;-82
2022/04/22 05:47:18;;;;;;;9.60;8.60;;;;;;;8.74;100.00;62899.84;5135452;28;20226;-82
2022/04/22 05:49:45;;;;;;;12.02;8.85;;;;;;;8.91;100.00;62914.38;5132866;28;20261;-81
2022/04/22 05:52:12;;;;;;;9.80;8.07;;;;;;;8.93;100.00;62913.88;5133919;28;20216;-81
2022/04/22 05:54:38;;;;;;;11.70;9.40;;;;;;;9.14;100.00;62935.59;5137070;28;20187;-82
2022/04/22 05:57:05;;;;;;;9.80;7.97;;;;;;;9.24;100.00;62946.47;5136854;28;20207;-82
2022/04/22 05:59:32;;;;;;;12.63;9.40;;;;;;;9.13;100.00;62939.63;5137007;28;20211;-81
2022/04/22 06:02:00;;;;;;;15.30;9.23;;;;;;;9.31;100.00;62953.16;5135146;28;20200;-82
2022/04/22 06:04:27;;;;;;;14.50;8.75;;;;;;;9.47;100.00;62977.34;5115975;28;20202;-82
2022/04/22 06:06:54;;;;;;;8.48;7.25;;;;;;;9.43;100.00;62970.66;5117172;28;20192;-81
2022/04/22 06:12:06;;;;;;;10.40;7.45;;;;;;;9.76;100.00;63002.25;5122194;28;20223;-82
2022/04/22 06:14:33;;;;;;;8.27;7.07;;;;;;;9.60;100.00;62983.16;5127944;28;20210;-82
2022/04/22 06:17:01;;;;;;;8.25;7.38;;;;;;;9.62;100.00;62987.75;5130892;28;20215;-83
2022/04/22 06:19:28;;;;;;;9.23;7.10;;;;;;;9.51;100.00;62976.38;5124297;28;20253;-82
2022/04/22 06:21:55;;;;;;;8.60;6.57;;;;;;;9.69;100.00;62991.94;5127052;28;20214;-82
2022/04/22 06:24:22;;;;;;;7.93;7.13;;;;;;;9.62;100.00;62989.78;5134912;28;20203;-82
2022/04/22 06:26:50;;;;;;;9.45;6.93;;;;;;;9.51;100.00;62976.38;5134762;28;20195;-83
2022/04/22 06:29:17;;;;;;;12.73;6.80;;;;;;;9.60;100.00;62985.69;5131847;28;20199;-81
2022/04/22 06:31:44;;;;;;;8.18;7.32;;;;;;;9.53;100.00;62983.53;5131531;28;20200;-81
2022/04/22 06:34:13;;;;;;;10.45;7.03;;;;;;;9.64;100.00;62991.84;5132309;28;20514;-80
2022/04/22 06:36:41;;;;;;;8.10;7.32;;;;;;;9.73;100.00;62999.16;5129086;28;20357;-79
2022/04/22 06:39:09;;;;;;;8.20;7.30;;;;;;;9.78;100.00;63001.25;5129526;28;20211;-81
2022/04/22 06:47:09;;;;;;;8.10;7.28;;;;;;;9.98;100.00;63027.53;5124561;28;20226;-81
2022/04/22 06:49:38;;;;;;;9.77;7.60;;;;;;;10.18;100.00;63043.16;5113585;28;20231;-80
2022/04/22 06:52:06;;;;;;;7.85;7.13;;;;;;;10.10;100.00;63036.91;5115219;28;20478;-80
2022/04/22 06:54:34;;;;;;;8.52;7.32;;;;;;;10.23;100.00;63052.91;5133985;28;20191;-79
2022/04/22 06:57:01;;;;;;;8.05;6.45;;;;;;;10.39;100.00;63067.44;5124413;28;20240;-79
2022/04/22 06:59:31;;;;;;;7.32;6.57;;;;;;;10.60;100.00;63093.22;5113105;28;20225;-80
2022/04/22 07:01:58;;;;;;;7.07;6.38;;;;;;;10.75;100.00;63101.13;5114213;28;20195;-80
2022/04/22 07:04:26;;;;;;;7.22;6.57;;;;;;;10.90;100.00;63117.16;5115139;28;20199;-80
2022/04/22 07:06:55;;;;;;;6.47;5.75;;;;;;;11.09;100.00;63141.94;5126480;28;20227;-80
2022/04/22 07:09:22;;;;;;;6.70;4.88;;;;;;;11.28;100.00;63156.50;5133317;28;20291;-81
2022/04/22 07:11:52;;;;;;;7.03;5.75;;;;;;;11.31;100.00;63164.19;5132366;28;20264;-80
2022/04/22 07:14:22;;;;;;;8.68;5.38;;;;;;;11.49;100.00;63182.84;5118378;28;20226;-79
2022/04/22 07:16:49;;;;;;;7.20;5.88;;;;;;;11.83;100.00;63212.47;5112548;28;20196;-79
2022/04/22 07:19:17;;;;;;;7.90;5.40;;;;;;;12.27;100.00;63260.63;5112218;28;20196;-79
2022/04/22 07:21:44;;;;;;;6.95;6.25;;;;;;;12.57;100.00;63291.69;5125204;28;20505;-79
2022/04/22 07:24:13;;;;;;;6.53;5.90;;;;;;;12.89;100.00;63326.94;5123423;28;20252;-78
2022/04/22 07:26:44;;;;;;;7.30;5.55;;;;;;;13.05;100.00;63344.06;5129474;28;20535;-79
2022/04/22 07:29:15;;;;;;;6.28;5.63;;;;;;;13.17;100.00;63355.97;5127794;28;20218;-79
2022/04/22 07:31:42;;;;;;;6.50;5.18;;;;;;;13.26;100.00;63365.84;5128157;28;20242;-78
2022/04/22 07:34:09;;;;;;;6.38;5.78;;;;;;;13.45;100.00;63387.59;5116697;28;20436;-79
2022/04/22 07:36:38;;;;;;;5.85;5.35;;;;;;;13.71;100.00;63406.91;5110209;28;20234;-78
2022/04/22 07:39:05;;;;;;;6.15;5.50;;;;;;;13.96;99.33;63434.91;5124877;28;20575;-78
2022/04/22 07:41:36;;;;;;;9.65;6.03;;;;;;;13.97;96.95;63439.00;5124836;28;20267;-78
2022/04/22 07:46:48;;;;;;;6.35;5.72;;;;;;;14.17;94.32;63459.25;5132332;28;20385;-79
2022/04/22 07:49:16;;;;;;;7.85;6.32;;;;;;;14.17;94.02;63459.75;5131233;28;20207;-79
2022/04/22 07:51:43;;;;;;;5.65;5.10;;;;;;;14.19;93.43;63461.31;5133706;28;20227;-78
2022/04/22 07:54:12;;;;;;;5.72;5.22;;;;;;;14.42;93.10;63485.75;5136244;28;20213;-79
2022/04/22 07:56:41;;;;;;;5.63;5.18;;;;;;;13.97;91.25;63431.31;5131682;28;20195;-78
2022/04/22 07:59:08;;;;;;;4.85;4.45;;;;;;;14.20;94.46;63462.91;5127083;28;20210;-79
2022/04/22 08:01:36;;;;;;;5.57;5.03;;;;;;;14.64;92.24;63511.16;5115139;28;20205;-77
2022/04/22 08:04:03;;;;;;;4.85;4.55;;;;;;;15.01;90.79;63547.03;5131175;28;20214;-79
2022/04/22 08:06:33;;;;;;;4.80;4.40;;;;;;;15.16;87.45;63562.09;5131284;28;20227;-81
2022/04/22 08:09:00;;;;;;;4.65;4.00;;;;;;;15.14;85.80;63559.50;5123327;28;20231;-80
2022/04/22 08:11:27;;;;;;;5.88;4.68;;;;;;;15.28;85.80;63574.06;5128493;28;20230;-79
2022/04/22 08:13:56;;;;;;;4.57;4.28;;;;;;;15.35;85.69;63581.84;5110956;28;20273;-79
2022/04/22 08:16:24;;;;;;;4.82;4.43;;;;;;;15.23;85.86;63566.28;5110572;28;20214;-79
2022/04/22 08:18:51;;;;;;;4.70;4.30;;;;;;;15.21;84.03;63567.31;5123475;28;20278;-80
2022/04/22 08:21:18;;;;;;;4.22;3.92;;;;;;;14.91;84.34;63531.00;5130772;28;20195;-78
2022/04/22 08:23:46;;;;;;;5.32;4.88;;;;;;;14.91;85.34;63536.66;5111888;28;20243;-79
2022/04/22 08:26:14;;;;;;;5.45;4.40;;;;;;;14.98;87.13;63540.81;5111012;28;20200;-80
2022/04/22 08:28:41;;;;;;;5.85;4.80;;;;;;;15.19;87.82;63564.69;5128000;28;20226;-79
2022/04/22 08:31:09;;;;;;;4.80;4.50;;;;;;;15.30;84.75;63576.66;5132781;28;20287;-79
2022/04/22 08:33:36;;;;;;;6.32;4.90;;;;;;;15.32;84.79;63578.75;5130691;28;20542;-80
2022/04/22 08:36:03;;;;;;;6.57;4.45;;;;;;;15.41;85.23;63590.16;5133263;28;20210;-80
2022/04/22 08:38:32;;;;;;;9.63;5.03;;;;;;;15.50;85.04;63600.03;5120285;28;20217;-79
2022/04/22 08:41:02;;;;;;;5.30;4.80;;;;;;;15.79;86.48;63629.66;5121657;28;20188;-81
2022/04/22 08:43:30;;;;;;;5.30;4.80;;;;;;;15.99;84.50;63650.97;5132439;28;20212;-79
2022/04/22 08:45:58;;;;;;;5.30;4.90;;;;;;;16.12;80.84;63663.97;5129334;28;20250;-80
2022/04/22 08:51:11;;;;;;;4.88;4.40;;;;;;;15.96;81.27;63642.72;5137509;28;20213;-79
2022/04/22 08:53:41;;;;;;;6.80;4.60;;;;;;;16.15;80.08;63662.47;5130071;28;20215;-78
2022/04/22 08:56:10;;;;;;;7.13;4.88;;;;;;;16.27;80.04;63676.47;5133343;28;20216;-79
2022/04/22 08:58:37;;;;;;;4.95;4.55;;;;;;;16.52;77.73;63699.94;5133495;28;20233;-79
2022/04/22 09:01:05;;;;;;;4.90;4.40;;;;;;;16.74;75.45;63725.41;5133464;28;20224;-80
2022/04/22 09:03:34;;;;;;;4.57;4.25;;;;;;;16.77;74.92;63725.94;5125449;28;20411;-79
2022/04/22 09:06:02;;;;;;;4.93;4.53;;;;;;;16.79;71.98;63731.13;5131137;28;20198;-78
2022/04/22 09:08:29;;;;;;;4.90;4.45;;;;;;;16.38;72.58;63690.47;5132978;28;20225;-78
2022/04/22 09:10:57;;;;;;;4.38;4.05;;;;;;;16.84;73.36;63733.75;5125443;28;20230;-77
2022/04/22 09:13:26;;;;;;;4.18;3.88;;;;;;;17.18;72.13;63769.16;5132982;28;20219;-78
2022/04/22 09:15:54;;;;;;;4.78;4.38;;;;;;;17.43;70.41;63794.63;5131108;28;20212;-79
2022/04/22 09:18:24;;;;;;;7.50;4.28;;;;;;;17.79;69.12;63834.19;5125870;28;20247;-80
2022/04/22 09:20:56;;;;;;;5.00;3.95;;;;;;;17.88;65.86;63846.66;5134159;27;20203;-78
2022/04/22 09:23:31;;;;;;;4.65;4.25;;;;;;;17.76;63.43;63831.06;5131433;28;20230;-79
2022/04/22 09:25:58;;;;;;;4.85;3.85;;;;;;;17.56;64.18;63810.25;5133166;28;20201;-77
2022/04/22 09:28:25;;;;;;;5.32;4.20;;;;;;;17.39;64.95;63787.38;5126536;28;20282;-79
2022/04/22 09:30:59;;;;;;;7.68;4.50;;;;;;;17.72;65.91;63822.28;5125684;28;20235;-79
2022/04/22 09:33:26;;;;;;;3.75;3.45;;;;;;;17.69;63.15;63821.22;5127635;28;20214;-78
2022/04/22 09:44:25;;;;;;;6.80;4.43;;;;;;;18.04;61.68;63855.06;5132644;28;20519;-79
2022/04/22 09:47:11;;;;;;;6.80;4.25;;;;;;;18.22;61.00;63881.56;5129545;28;20209;-79
2022/04/22 09:49:39;;;;;;;4.78;4.38;;;;;;;18.19;57.32;63875.84;5131318;28;20291;-79
2022/04/22 09:52:08;;;;;;;4.22;3.83;;;;;;;18.25;60.87;63882.63;5133284;28;20242;-79
2022/04/22 09:54:35;;;;;;;4.25;3.85;;;;;;;18.18;60.25;63875.34;5130885;28;20531;-79
2022/04/22 09:57:02;;;;;;;3.92;3.63;;;;;;;18.05;58.08;63861.28;5109774;28;20285;-79
2022/04/22 09:59:32;;;;;;;5.00;3.70;;;;;;;18.39;61.99;63896.69;5110547;28;20195;-80
2022/04/22 10:02:00;;;;;;;5.78;4.15;;;;;;;18.60;58.60;63915.50;5112077;28;20223;-78
2022/04/22 10:04:28;;;;;;;4.07;3.72;;;;;;;18.77;59.75;63933.75;5125394;28;20226;-80
2022/04/22 10:06:57;;;;;;;6.15;3.60;;;;;;;18.93;58.37;63953.00;5128640;28;20195;-79
2022/04/22 10:09:26;;;;;;;4.93;3.90;;;;;;;19.05;57.51;63962.41;5112535;28;20389;-79
2022/04/22 10:11:55;;;;;;;7.07;4.60;;;;;;;19.11;58.18;63968.66;5113127;28;20227;-79
2022/04/22 10:14:36;;;;;;;5.18;4.55;;;;;;;19.11;57.24;63971.75;5125744;28;20273;-80
2022/04/22 10:17:05;;;;;;;4.15;3.88;;;;;;;19.02;55.38;63962.38;5129201;28;20226;-80
2022/04/22 10:19:34;;;;;;;4.93;4.43;;;;;;;18.92;55.71;63951.94;5131150;28;20195;-79
2022/04/22 10:22:01;;;;;;;4.97;3.97;;;;;;;19.12;57.23;63969.72;5127389;28;20259;-79
2022/04/22 10:24:31;;;;;;;4.15;3.85;;;;;;;19.20;56.06;63978.56;5115543;28;20211;-79
2022/04/22 10:26:59;;;;;;;4.25;3.80;;;;;;;19.09;56.26;63969.69;5128233;28;20199;-80
2022/04/22 10:29:26;;;;;;;7.15;3.78;;;;;;;19.28;57.61;63991.53;5130448;28;20282;-78
2022/04/22 10:31:54;;;;;;;9.05;4.65;;;;;;;19.05;56.00;63965.50;5125795;28;20230;-78
2022/04/22 10:34:20;;;;;;;4.68;3.75;;;;;;;19.07;57.28;63969.66;5126869;28;20238;-78
2022/04/22 10:36:55;;;;;;;6.13;3.60;;;;;;;19.28;57.81;63991.53;5126036;28;20194;-78
2022/04/22 10:39:36;;;;;;;3.72;3.45;;;;;;;19.12;55.87;63974.88;5116075;28;20204;-79
2022/04/22 10:42:09;;;;;;;4.68;3.95;;;;;;;19.21;56.83;63979.06;5131224;27;20230;-77
2022/04/22 10:47:40;;;;;;;3.90;3.60;;;;;;;19.28;57.83;63992.06;5126808;28;20260;-80
2022/04/22 10:50:26;;;;;;;4.15;3.65;;;;;;;19.25;57.20;63981.19;5129065;28;20220;-78
2022/04/22 10:53:04;;;;;;;4.25;3.40;;;;;;;19.30;56.24;63994.19;5124261;27;20271;-78
2022/04/22 10:55:34;;;;;;;4.20;3.80;;;;;;;19.44;52.58;64000.50;5124408;28;20198;-79
2022/04/22 10:58:20;;;;;;;4.55;4.15;;;;;;;19.56;55.31;64018.19;5130337;27;20290;-79
2022/04/22 11:00:49;;;;;;;6.05;3.75;;;;;;;19.74;53.87;64041.59;5135426;27;20239;-79
2022/04/22 11:03:18;;;;;;;3.33;3.17;;;;;;;19.73;54.41;64035.38;5132373;27;20218;-78
2022/04/22 11:06:01;;;;;;;7.82;3.92;;;;;;;19.44;51.79;64003.09;5130491;27;20199;-78
2022/04/22 11:08:30;;;;;;;4.45;4.03;;;;;;;19.28;54.50;63988.97;5135932;28;20275;-80
2022/04/22 11:11:07;;;;;;;4.47;3.28;;;;;;;19.45;52.33;64004.13;5134813;28;20222;-79
2022/04/22 11:13:40;;;;;;;6.78;4.00;;;;;;;19.61;52.83;64025.44;5137180;28;20221;-80
2022/04/22 11:16:08;;;;;;;5.40;3.85;;;;;;;19.73;54.25;64035.91;5146591;27;20198;-78
2022/04/22 11:18:36;;;;;;;7.88;4.72;;;;;;;19.85;54.95;64045.84;5156296;27;20222;-78
2022/04/22 11:21:04;;;;;;;4.30;3.20;;;;;;;20.03;51.60;64066.69;5124692;27;20199;-77
2022/04/22 11:23:39;;;;;;;3.70;3.40;;;;;;;20.04;51.24;64068.25;5117183;28;20227;-77
2022/04/22 11:26:08;;;;;;;3.38;3.03;;;;;;;20.04;49.30;64067.72;5111849;28;20233;-76
2022/04/22 11:28:36;;;;;;;3.53;3.28;;;;;;;20.23;49.91;64087.56;5124248;28;20254;-77
2022/04/22 11:31:07;;;;;;;5.68;3.65;;;;;;;20.16;48.23;64080.78;5136513;27;20316;-77
2022/04/22 11:34:05;;;;;;;3.55;3.30;;;;;;;20.04;49.36;64068.25;5115696;28;20214;-78
2022/04/22 11:36:43;;;;;;;9.20;3.90;;;;;;;19.81;48.89;64043.75;5091207;28;20237;-77
2022/04/22 11:39:17;;;;;;;6.22;4.03;;;;;;;19.94;49.86;64057.81;5126478;28;20198;-77
2022/04/22 11:41:57;;;;;;;3.65;3.30;;;;;;;20.22;49.11;64081.34;5125798;28;20198;-76
2022/04/22 11:44:24;;;;;;;4.63;3.35;;;;;;;20.61;50.28;64127.75;5136615;27;20196;-76
2022/04/22 11:46:52;;;;;;;6.57;5.38;;;;;;;21.13;50.53;64178.44;5130563;27;20195;-79
2022/04/22 11:49:20;;;;;;;6.00;3.95;;;;;;;21.55;48.05;64227.47;5136463;27;20202;-79
2022/04/22 11:51:46;;;;;;;5.10;3.50;;;;;;;21.82;48.91;64252.59;5146838;27;20567;-78
2022/04/22 11:54:22;;;;;;;3.58;3.17;;;;;;;21.62;46.32;64232.19;5146976;27;20193;-79
2022/04/22 11:56:50;;;;;;;7.18;3.70;;;;;;;21.67;46.37;64237.94;5136119;27;20190;-79
2022/04/22 11:59:21;;;;;;;6.28;3.88;;;;;;;20.88;45.59;64152.81;5120695;28;20319;-79
2022/04/22 12:10:23;;;;;;;5.90;3.58;;;;;;;21.39;45.35;64208.69;5103624;28;20199;-79
2022/04/22 12:12:51;;;;;;;3.75;3.38;;;;;;;21.65;45.56;64237.91;5118753;28;20226;-79
2022/04/22 12:15:20;;;;;;;5.20;3.15;;;;;;;21.63;43.67;64233.75;5129093;28;20248;-79
2022/04/22 12:17:47;;;;;;;6.45;3.42;;;;;;;21.78;46.23;64246.31;5131179;28;20278;-79
2022/04/22 12:20:15;;;;;;;4.40;3.75;;;;;;;21.84;46.55;64252.09;5130602;28;20207;-79
2022/04/22 12:22:42;;;;;;;4.70;4.28;;;;;;;21.62;46.11;64234.78;5128473;28;20222;-79
2022/04/22 12:25:14;;;;;;;4.90;3.80;;;;;;;21.29;47.65;64202.91;5120412;28;20213;-79
2022/04/22 12:27:43;;;;;;;3.47;3.28;;;;;;;21.34;45.29;64200.88;5127126;28;20218;-79
2022/04/22 12:30:11;;;;;;;5.32;3.72;;;;;;;21.18;45.19;64186.75;5130700;28;20255;-78
2022/04/22 12:32:41;;;;;;;3.83;3.60;;;;;;;20.97;46.87;64167.41;5126028;28;20305;-78
2022/04/22 12:35:15;;;;;;;6.68;3.58;;;;;;;21.23;46.84;64194.56;5123689;28;20202;-78
2022/04/22 12:37:46;;;;;;;4.47;3.80;;;;;;;21.45;48.49;64217.03;5115126;28;20223;-79
2022/04/22 12:40:15;;;;;;;4.85;4.05;;;;;;;21.43;46.94;64210.28;5111782;28;20202;-80
2022/04/22 12:42:42;;;;;;;5.05;4.68;;;;;;;21.04;46.24;64169.56;5129928;28;20268;-79
2022/04/22 12:53:38;;;;;;;4.05;3.65;;;;;;;19.84;51.06;64049.97;5117438;28;20577;-79
2022/04/22 12:56:07;;;;;;;4.32;3.92;;;;;;;20.04;51.48;64062.56;5120837;28;20202;-80
2022/04/22 12:58:50;;;;;;;4.25;3.90;;;;;;;20.47;49.49;64113.13;5120770;28;20256;-78